createdAt,value
2023-01-28T00:02:59.640Z,101438.25
2023-01-28T00:15:50.792Z,101436.73
2023-01-28T00:18:17.903Z,101433.60
2023-01-28T00:20:58.505Z,101439.89
2023-01-28T00:27:16.215Z,101436.38
2023-01-28T00:33:36.988Z,101435.02
2023-01-28T00:36:19.625Z,101435.40
2023-01-28T00:39:37.570Z,101440.27
2023-01-28T00:43:13.656Z,101448.86
2023-01-28T00:45:55.321Z,101453.55
2023-01-28T00:48:48.218Z,101450.58
2023-01-28T00:55:02.386Z,101446.88
2023-01-28T01:05:53.095Z,101447.44
2023-01-28T01:12:37.355Z,101443.50
2023-01-28T01:15:34.841Z,101444.65
2023-01-28T01:21:47.282Z,101440.00
2023-01-28T01:24:46.531Z,101445.44
2023-01-28T01:41:55.544Z,101452.10
2023-01-28T01:44:54.877Z,101445.02
2023-01-28T01:47:47.194Z,101444.02
2023-01-28T01:51:12.189Z,101439.16
2023-01-28T01:54:10.302Z,101436.35
2023-01-28T02:03:24.132Z,101439.19
2023-01-28T02:12:58.505Z,101440.10
2023-01-28T02:15:52.030Z,101440.11
2023-01-28T02:18:52.441Z,101440.21
2023-01-28T02:22:18.115Z,101441.05
2023-01-28T02:25:43.815Z,101441.96
2023-01-28T02:28:42.587Z,101446.27
2023-01-28T02:31:19.361Z,101444.38
2023-01-28T02:34:08.869Z,101443.34
2023-01-28T02:36:43.612Z,101442.13
2023-01-28T02:39:18.747Z,101445.66
2023-01-28T02:41:53.520Z,101447.01
2023-01-28T02:44:20.673Z,101438.45
2023-01-28T02:47:06.073Z,101439.20
2023-01-28T02:49:49.128Z,101443.79
2023-01-28T02:52:56.314Z,101440.05
2023-01-28T02:55:51.451Z,101445.56
2023-01-28T02:58:29.343Z,101446.38
2023-01-28T03:01:03.281Z,101443.63
2023-01-28T03:03:48.553Z,101446.23
2023-01-28T03:06:21.389Z,101450.13
2023-01-28T03:09:15.515Z,101449.11
2023-01-28T03:12:06.721Z,101448.52
2023-01-28T03:14:54.998Z,101451.17
2023-01-28T03:18:01.152Z,101453.58
2023-01-28T03:20:55.777Z,101450.93
2023-01-28T03:23:49.560Z,101455.36
2023-01-28T03:26:40.540Z,101452.74
2023-01-28T03:29:30.845Z,101451.40
2023-01-28T03:32:18.756Z,101453.09
2023-01-28T03:35:05.352Z,101454.36
2023-01-28T03:37:34.571Z,101457.23
2023-01-28T03:40:14.223Z,101463.33
2023-01-28T03:42:43.776Z,101466.83
2023-01-28T03:45:22.666Z,101467.75
2023-01-28T03:47:49.891Z,101466.52
2023-01-28T03:50:17.152Z,101460.96
2023-01-28T03:53:11.771Z,101463.41
2023-01-28T03:55:48.847Z,101470.46
2023-01-28T03:58:46.109Z,101471.44
2023-01-28T04:01:13.889Z,101472.05
2023-01-28T04:03:41.024Z,101474.13
2023-01-28T04:06:13.756Z,101480.06
2023-01-28T04:09:10.035Z,101478.95
2023-01-28T04:11:59.966Z,101475.36
2023-01-28T04:14:39.723Z,101474.54
2023-01-28T04:17:11.156Z,101476.54
2023-01-28T04:19:39.952Z,101478.75
2023-01-28T04:22:10.862Z,101483.56
2023-01-28T04:24:39.193Z,101491.46
2023-01-28T04:27:07.079Z,101495.67
2023-01-28T04:29:34.954Z,101494.13
2023-01-28T04:32:21.855Z,101492.64
2023-01-28T04:35:15.417Z,101493.98
2023-01-28T04:38:15.440Z,101490.74
2023-01-28T04:40:53.016Z,101495.97
2023-01-28T04:43:28.930Z,101497.42
2023-01-28T04:46:15.161Z,101495.02
2023-01-28T04:48:52.778Z,101494.70
2023-01-28T04:51:39.077Z,101489.23
2023-01-28T04:54:27.113Z,101491.55
2023-01-28T04:56:57.716Z,101489.12
2023-01-28T04:59:25.188Z,101492.62
2023-01-28T05:01:52.325Z,101486.77
2023-01-28T05:04:20.032Z,101488.83
2023-01-28T05:06:47.382Z,101486.98
2023-01-28T05:09:17.349Z,101485.98
2023-01-28T05:11:44.612Z,101485.20
2023-01-28T05:14:11.965Z,101488.73
2023-01-28T05:16:43.773Z,101493.23
2023-01-28T05:19:11.862Z,101492.05
2023-01-28T05:21:41.799Z,101495.50
2023-01-28T05:24:17.908Z,101501.27
2023-01-28T05:26:45.269Z,101501.67
2023-01-28T05:29:12.591Z,101504.63
2023-01-28T05:31:40.061Z,101508.39
2023-01-28T05:34:08.071Z,101512.48
2023-01-28T05:36:35.150Z,101510.89
2023-01-28T05:39:08.624Z,101509.30
2023-01-28T05:41:35.829Z,101512.19
2023-01-28T05:44:03.754Z,101519.24
2023-01-28T05:46:48.000Z,101518.44
2023-01-28T05:49:47.163Z,101522.52
2023-01-28T05:52:34.622Z,101523.98
2023-01-28T05:55:02.673Z,101524.31
2023-01-28T05:57:30.305Z,101525.50
2023-01-28T05:59:57.541Z,101531.20
2023-01-28T06:02:24.695Z,101530.63
2023-01-28T06:04:55.179Z,101536.05
2023-01-28T06:07:23.555Z,101539.73
2023-01-28T06:09:50.718Z,101542.67
2023-01-28T06:12:20.601Z,101546.48
2023-01-28T06:15:13.739Z,101551.09
2023-01-28T06:17:55.933Z,101547.20
2023-01-28T06:20:31.054Z,101549.96
2023-01-28T06:22:58.738Z,101554.17
2023-01-28T06:25:26.127Z,101557.55
2023-01-28T06:27:54.012Z,101557.85
2023-01-28T06:30:21.077Z,101556.84
2023-01-28T06:32:53.976Z,101558.23
2023-01-28T06:35:21.362Z,101555.88
2023-01-28T06:37:48.528Z,101555.40
2023-01-28T06:40:16.104Z,101549.39
2023-01-28T06:42:43.460Z,101551.70
2023-01-28T06:45:11.489Z,101554.94
2023-01-28T06:47:39.389Z,101558.27
2023-01-28T06:50:07.475Z,101561.24
2023-01-28T06:52:34.539Z,101562.10
2023-01-28T06:55:01.776Z,101563.91
2023-01-28T06:57:28.890Z,101563.02
2023-01-28T06:59:56.002Z,101561.11
2023-01-28T07:02:23.627Z,101563.59
2023-01-28T07:04:51.684Z,101563.98
2023-01-28T07:07:18.849Z,101566.16
2023-01-28T07:09:46.210Z,101569.05
2023-01-28T07:12:13.302Z,101568.30
2023-01-28T07:14:40.526Z,101569.19
2023-01-28T07:17:07.628Z,101571.36
2023-01-28T07:19:34.958Z,101575.31
2023-01-28T07:22:02.951Z,101574.63
2023-01-28T07:24:30.875Z,101575.91
2023-01-28T07:26:58.157Z,101577.86
2023-01-28T07:29:25.449Z,101574.46
2023-01-28T07:31:52.625Z,101572.83
2023-01-28T07:34:19.777Z,101575.80
2023-01-28T07:36:46.820Z,101579.09
2023-01-28T07:39:13.858Z,101574.91
2023-01-28T07:41:41.122Z,101578.73
2023-01-28T07:44:10.330Z,101583.50
2023-01-28T07:46:37.891Z,101578.42
2023-01-28T07:49:04.967Z,101576.52
2023-01-28T07:51:32.171Z,101578.72
2023-01-28T07:53:59.447Z,101579.77
2023-01-28T07:56:28.914Z,101579.75
2023-01-28T07:58:56.064Z,101575.41
2023-01-28T08:01:23.246Z,101578.11
2023-01-28T08:03:50.401Z,101576.30
2023-01-28T08:06:17.543Z,101575.79
2023-01-28T08:08:44.824Z,101569.36
2023-01-28T08:11:11.926Z,101572.81
2023-01-28T08:13:39.404Z,101577.02
2023-01-28T08:16:06.909Z,101575.06
2023-01-28T08:18:34.294Z,101572.41
2023-01-28T08:21:01.452Z,101575.05
2023-01-28T08:23:30.061Z,101576.71
2023-01-28T08:25:58.967Z,101576.04
2023-01-28T08:28:26.654Z,101581.05
2023-01-28T08:30:53.940Z,101580.16
2023-01-28T08:33:21.756Z,101580.81
2023-01-28T08:35:48.806Z,101576.69
2023-01-28T08:38:19.920Z,101579.80
2023-01-28T08:40:49.966Z,101577.30
2023-01-28T08:43:17.251Z,101577.29
2023-01-28T08:45:44.429Z,101582.16
2023-01-28T08:48:15.846Z,101586.63
2023-01-28T08:50:44.132Z,101579.86
2023-01-28T08:53:14.418Z,101580.58
2023-01-28T08:55:42.222Z,101581.53
2023-01-28T08:58:12.109Z,101585.43
2023-01-28T09:00:40.336Z,101588.70
2023-01-28T09:03:08.019Z,101595.58
2023-01-28T09:05:35.720Z,101594.29
2023-01-28T09:08:08.741Z,101599.73
2023-01-28T09:10:37.812Z,101599.07
2023-01-28T09:13:10.569Z,101598.51
2023-01-28T09:15:38.408Z,101598.27
2023-01-28T09:18:05.731Z,101592.62
2023-01-28T09:20:33.346Z,101594.09
2023-01-28T09:23:01.723Z,101599.02
2023-01-28T09:25:29.442Z,101600.56
2023-01-28T09:27:57.369Z,101596.55
2023-01-28T09:30:25.492Z,101591.91
2023-01-28T09:32:54.397Z,101590.85
2023-01-28T09:35:22.211Z,101593.52
2023-01-28T09:37:49.733Z,101591.20
2023-01-28T09:40:25.499Z,101598.13
2023-01-28T09:42:59.015Z,101596.56
2023-01-28T09:45:42.681Z,101588.92
2023-01-28T09:48:15.432Z,101586.27
2023-01-28T09:50:48.053Z,101583.69
2023-01-28T09:53:19.784Z,101589.11
2023-01-28T09:55:50.949Z,101591.77
2023-01-28T09:58:18.131Z,101592.42
2023-01-28T10:00:54.077Z,101588.81
2023-01-28T10:03:43.706Z,101590.20
2023-01-28T10:06:20.020Z,101591.06
2023-01-28T10:09:17.948Z,101588.42
2023-01-28T10:11:59.894Z,101586.42
2023-01-28T10:14:45.024Z,101591.91
2023-01-28T10:17:34.888Z,101599.02
2023-01-28T10:20:17.735Z,101602.06
2023-01-28T10:22:51.240Z,101600.39
2023-01-28T10:25:24.952Z,101600.98
2023-01-28T10:27:52.867Z,101599.35
2023-01-28T10:30:24.937Z,101599.86
2023-01-28T10:33:04.158Z,101603.26
2023-01-28T10:35:38.087Z,101609.96
2023-01-28T10:38:10.421Z,101618.30
2023-01-28T10:40:37.546Z,101616.39
2023-01-28T10:43:04.946Z,101617.56
2023-01-28T10:45:45.546Z,101607.38
2023-01-28T10:48:21.897Z,101605.54
2023-01-28T10:51:02.064Z,101605.84
2023-01-28T10:53:37.297Z,101610.14
2023-01-28T10:56:08.746Z,101604.95
2023-01-28T10:58:53.872Z,101606.59
2023-01-28T11:01:22.023Z,101605.08
2023-01-28T11:03:57.735Z,101604.16
2023-01-28T11:06:29.541Z,101606.80
2023-01-28T11:08:56.698Z,101602.83
2023-01-28T11:11:28.163Z,101600.92
2023-01-28T11:13:58.055Z,101605.32
2023-01-28T11:16:26.455Z,101601.52
2023-01-28T11:18:57.565Z,101604.26
2023-01-28T11:21:27.546Z,101610.38
2023-01-28T11:23:59.563Z,101608.89
2023-01-28T11:26:34.258Z,101601.39
2023-01-28T11:29:01.409Z,101601.59
2023-01-28T11:31:29.075Z,101601.04
2023-01-28T11:33:57.170Z,101597.55
2023-01-28T11:36:32.442Z,101597.77
2023-01-28T11:39:05.036Z,101586.27
2023-01-28T11:41:37.631Z,101589.20
2023-01-28T11:44:25.918Z,101585.80
2023-01-28T11:47:14.507Z,101578.14
2023-01-28T11:49:48.494Z,101583.20
2023-01-28T11:53:04.871Z,101589.56
2023-01-28T11:55:41.287Z,101589.91
2023-01-28T11:58:31.709Z,101589.52
2023-01-28T12:01:36.094Z,101589.79
2023-01-28T12:04:42.813Z,101588.35
2023-01-28T12:07:28.515Z,101587.67
2023-01-28T12:10:19.184Z,101579.19
2023-01-28T12:13:09.661Z,101573.69
2023-01-28T12:15:39.608Z,101573.79
2023-01-28T12:18:22.732Z,101566.85
2023-01-28T12:21:00.851Z,101570.49
2023-01-28T12:23:50.764Z,101564.09
2023-01-28T12:26:50.361Z,101557.60
2023-01-28T12:29:47.072Z,101549.17
2023-01-28T12:32:39.100Z,101556.39
2023-01-28T12:35:25.508Z,101552.45
2023-01-28T12:38:07.188Z,101552.52
2023-01-28T12:40:57.205Z,101550.09
2023-01-28T12:43:49.003Z,101555.02
2023-01-28T12:46:22.348Z,101546.55
2023-01-28T12:48:58.468Z,101546.98
2023-01-28T12:51:36.072Z,101545.30
2023-01-28T12:54:21.811Z,101554.08
2023-01-28T12:56:52.776Z,101557.06
2023-01-28T12:59:28.878Z,101558.40
2023-01-28T13:02:11.195Z,101558.13
2023-01-28T13:04:47.631Z,101562.61
2023-01-28T13:07:22.074Z,101558.73
2023-01-28T13:09:54.503Z,101560.85
2023-01-28T13:12:22.621Z,101566.48
2023-01-28T13:14:52.652Z,101564.35
2023-01-28T13:17:29.522Z,101565.77
2023-01-28T13:19:58.859Z,101564.56
2023-01-28T13:22:28.164Z,101570.35
2023-01-28T13:24:55.362Z,101570.43
2023-01-28T13:27:25.514Z,101567.79
2023-01-28T13:30:06.988Z,101565.73
2023-01-28T13:32:35.532Z,101562.27
2023-01-28T13:35:26.759Z,101569.35
2023-01-28T13:37:56.883Z,101573.90
2023-01-28T13:40:28.599Z,101574.92
2023-01-28T13:43:23.337Z,101574.24
2023-01-28T13:46:01.768Z,101579.53
2023-01-28T13:48:46.025Z,101576.38
2023-01-28T13:51:20.183Z,101570.60
2023-01-28T13:53:55.854Z,101575.45
2023-01-28T13:56:30.059Z,101577.36
2023-01-28T13:59:29.487Z,101582.48
2023-01-28T14:02:25.619Z,101579.30
2023-01-28T14:05:20.273Z,101572.73
2023-01-28T14:08:08.840Z,101579.86
2023-01-28T14:10:44.743Z,101585.55
2023-01-28T14:13:17.834Z,101584.93
2023-01-28T14:16:03.078Z,101588.39
2023-01-28T14:18:33.153Z,101593.02
2023-01-28T14:21:03.209Z,101591.91
2023-01-28T14:23:31.935Z,101597.98
2023-01-28T14:26:33.056Z,101591.32
2023-01-28T14:29:18.052Z,101584.02
2023-01-28T14:31:45.976Z,101582.48
2023-01-28T14:34:30.338Z,101580.56
2023-01-28T14:37:04.373Z,101581.84
2023-01-28T14:39:41.326Z,101580.92
2023-01-28T14:42:17.879Z,101576.92
2023-01-28T14:44:48.904Z,101578.94
2023-01-28T14:47:45.791Z,101579.05
2023-01-28T14:50:26.368Z,101580.59
2023-01-28T14:53:02.696Z,101577.52
2023-01-28T14:55:37.653Z,101574.89
2023-01-28T14:58:12.530Z,101577.19
2023-01-28T15:00:39.703Z,101580.32
2023-01-28T15:03:26.741Z,101571.80
2023-01-28T15:06:06.047Z,101570.59
2023-01-28T15:08:33.276Z,101569.91
2023-01-28T15:11:01.891Z,101564.70
2023-01-28T15:13:34.013Z,101562.85
2023-01-28T15:16:01.560Z,101567.16
2023-01-28T15:18:42.372Z,101561.35
2023-01-28T15:21:10.017Z,101559.86
2023-01-28T15:23:41.568Z,101557.83
2023-01-28T15:26:30.451Z,101553.27
2023-01-28T15:28:57.868Z,101553.53
2023-01-28T15:31:30.981Z,101552.54
2023-01-28T15:34:19.027Z,101556.36
2023-01-28T15:36:49.491Z,101564.39
2023-01-28T15:39:22.494Z,101569.14
2023-01-28T15:41:54.874Z,101561.56
2023-01-28T15:44:29.853Z,101552.77
2023-01-28T15:46:58.797Z,101550.64
2023-01-28T15:49:31.368Z,101551.30
2023-01-28T15:51:58.641Z,101549.00
2023-01-28T15:54:26.430Z,101551.05
2023-01-28T15:56:53.569Z,101548.27
2023-01-28T15:59:27.766Z,101543.21
2023-01-28T16:02:18.497Z,101550.36
2023-01-28T16:05:00.300Z,101544.14
2023-01-28T16:07:30.105Z,101547.62
2023-01-28T16:09:59.384Z,101544.21
2023-01-28T16:12:27.193Z,101538.84
2023-01-28T16:14:57.453Z,101539.46
2023-01-28T16:17:28.863Z,101541.94
2023-01-28T16:20:05.645Z,101545.45
2023-01-28T16:22:38.688Z,101544.29
2023-01-28T16:25:21.070Z,101543.30
2023-01-28T16:27:49.097Z,101544.42
2023-01-28T16:30:16.996Z,101544.27
2023-01-28T16:32:44.921Z,101543.47
2023-01-28T16:35:23.179Z,101546.43
2023-01-28T16:37:50.686Z,101550.14
2023-01-28T16:40:24.690Z,101555.56
2023-01-28T16:42:55.588Z,101555.18
2023-01-28T16:45:25.823Z,101561.46
2023-01-28T16:47:53.421Z,101565.12
2023-01-28T16:50:22.463Z,101563.85
2023-01-28T16:52:53.377Z,101563.15
2023-01-28T16:55:22.098Z,101565.30
2023-01-28T16:57:52.631Z,101569.94
2023-01-28T17:00:25.337Z,101573.58
2023-01-28T17:02:54.279Z,101581.06
2023-01-28T17:05:22.820Z,101586.66
2023-01-28T17:07:50.205Z,101593.34
2023-01-28T17:10:17.902Z,101591.38
2023-01-28T17:12:47.729Z,101593.71
2023-01-28T17:15:15.650Z,101594.02
2023-01-28T17:17:42.805Z,101601.02
2023-01-28T17:20:11.110Z,101601.18
2023-01-28T17:22:38.346Z,101603.70
2023-01-28T17:25:05.948Z,101606.70
2023-01-28T17:27:33.078Z,101604.41
2023-01-28T17:30:00.192Z,101610.55
2023-01-28T17:32:27.347Z,101609.71
2023-01-28T17:34:54.494Z,101607.94
2023-01-28T17:37:22.169Z,101604.96
2023-01-28T17:39:49.316Z,101606.80
2023-01-28T17:42:16.751Z,101607.80
2023-01-28T17:44:43.865Z,101610.63
2023-01-28T17:47:11.839Z,101620.30
2023-01-28T17:49:38.992Z,101614.11
2023-01-28T17:52:06.206Z,101607.83
2023-01-28T17:54:34.912Z,101603.73
2023-01-28T17:57:02.082Z,101602.44
2023-01-28T17:59:29.962Z,101606.80
2023-01-28T18:01:57.966Z,101601.63
2023-01-28T18:04:25.135Z,101610.34
2023-01-28T18:06:52.318Z,101611.96
2023-01-28T18:09:19.588Z,101610.09
2023-01-28T18:11:47.060Z,101607.21
2023-01-28T18:14:14.229Z,101605.37
2023-01-28T18:16:41.310Z,101611.54
2023-01-28T18:19:10.634Z,101620.63
2023-01-28T18:21:52.729Z,101627.85
2023-01-28T18:24:23.334Z,101628.88
2023-01-28T18:26:57.670Z,101635.23
2023-01-28T18:29:26.148Z,101638.36
2023-01-28T18:31:54.890Z,101644.11
2023-01-28T18:34:24.092Z,101644.25
2023-01-28T18:36:51.800Z,101642.13
2023-01-28T18:39:19.927Z,101640.51
2023-01-28T18:41:47.212Z,101644.57
2023-01-28T18:44:15.324Z,101646.86
2023-01-28T18:46:42.725Z,101641.60
2023-01-28T18:49:10.278Z,101632.49
2023-01-28T18:51:38.203Z,101633.04
2023-01-28T18:54:08.820Z,101643.08
2023-01-28T18:56:39.156Z,101649.17
2023-01-28T18:59:09.461Z,101648.95
2023-01-28T19:01:36.694Z,101641.20
2023-01-28T19:04:03.971Z,101639.27
2023-01-28T19:06:31.469Z,101638.98
2023-01-28T19:09:02.811Z,101645.11
2023-01-28T19:11:30.319Z,101642.55
2023-01-28T19:13:57.991Z,101637.80
2023-01-28T19:16:26.031Z,101632.41
2023-01-28T19:18:59.154Z,101633.30
2023-01-28T19:21:28.653Z,101632.16
2023-01-28T19:23:59.971Z,101622.48
2023-01-28T19:26:29.781Z,101617.20
2023-01-28T19:28:57.235Z,101616.07
2023-01-28T19:31:25.587Z,101620.24
2023-01-28T19:33:55.734Z,101619.26
2023-01-28T19:36:23.974Z,101618.70
2023-01-28T19:38:52.049Z,101619.15
2023-01-28T19:41:19.224Z,101623.19
2023-01-28T19:43:47.093Z,101634.35
2023-01-28T19:46:17.589Z,101634.36
2023-01-28T19:48:45.170Z,101631.45
2023-01-28T19:51:13.961Z,101632.92
2023-01-28T19:53:42.761Z,101626.08
2023-01-28T19:56:13.152Z,101623.20
2023-01-28T19:58:43.005Z,101619.90
2023-01-28T20:01:21.888Z,101619.19
2023-01-28T20:03:51.689Z,101627.66
2023-01-28T20:06:19.053Z,101625.58
2023-01-28T20:08:51.888Z,101623.50
2023-01-28T20:11:19.429Z,101629.48
2023-01-28T20:13:47.854Z,101628.85
2023-01-28T20:16:26.542Z,101618.16
2023-01-28T20:18:53.605Z,101626.09
2023-01-28T20:21:21.258Z,101623.61
2023-01-28T20:23:51.102Z,101621.36
2023-01-28T20:26:23.465Z,101619.46
2023-01-28T20:28:50.933Z,101621.92
2023-01-28T20:31:19.327Z,101625.54
2023-01-28T20:33:46.710Z,101624.85
2023-01-28T20:36:14.510Z,101625.80
2023-01-28T20:38:47.114Z,101610.66
2023-01-28T20:41:19.875Z,101612.77
2023-01-28T20:43:48.662Z,101603.25
2023-01-28T20:46:21.865Z,101604.52
2023-01-28T20:48:49.707Z,101606.44
2023-01-28T20:51:22.899Z,101598.60
2023-01-28T20:53:50.703Z,101594.58
2023-01-28T20:56:20.390Z,101591.67
2023-01-28T20:58:53.188Z,101587.94
2023-01-28T21:01:23.433Z,101591.55
2023-01-28T21:03:50.968Z,101593.20
2023-01-28T21:06:18.682Z,101588.39
2023-01-28T21:08:45.814Z,101593.64
2023-01-28T21:11:13.582Z,101601.38
2023-01-28T21:13:40.842Z,101610.66
2023-01-28T21:16:08.365Z,101612.96
2023-01-28T21:18:35.532Z,101614.13
2023-01-28T21:21:05.285Z,101610.27
2023-01-28T21:23:32.782Z,101612.65
2023-01-28T21:26:04.914Z,101616.19
2023-01-28T21:28:32.375Z,101618.17
2023-01-28T21:31:09.929Z,101618.75
2023-01-28T21:33:37.357Z,101617.35
2023-01-28T21:36:12.390Z,101616.56
2023-01-28T21:38:39.965Z,101611.52
2023-01-28T21:41:08.595Z,101612.09
2023-01-28T21:43:36.029Z,101610.36
2023-01-28T21:46:03.657Z,101606.86
2023-01-28T21:48:36.971Z,101600.36
2023-01-28T21:51:26.226Z,101600.80
2023-01-28T21:53:53.645Z,101601.19
2023-01-28T21:56:20.891Z,101602.03
2023-01-28T21:59:06.420Z,101604.45
2023-01-28T22:01:33.799Z,101607.56
2023-01-28T22:04:01.122Z,101611.07
2023-01-28T22:06:28.219Z,101613.06
2023-01-28T22:08:55.372Z,101613.98
2023-01-28T22:11:22.597Z,101603.45
2023-01-28T22:13:50.013Z,101598.76
2023-01-28T22:16:17.969Z,101592.25
2023-01-28T22:18:46.310Z,101597.48
2023-01-28T22:21:13.535Z,101596.45
2023-01-28T22:23:40.709Z,101597.39
2023-01-28T22:26:07.846Z,101600.49
2023-01-28T22:28:36.966Z,101596.39
2023-01-28T22:31:06.694Z,101591.94
2023-01-28T22:33:35.105Z,101591.39
2023-01-28T22:36:05.191Z,101599.45
2023-01-28T22:38:32.370Z,101605.32
2023-01-28T22:41:14.292Z,101603.58
2023-01-28T22:43:41.609Z,101594.33
2023-01-28T22:46:09.457Z,101586.88
2023-01-28T22:48:38.502Z,101587.54
2023-01-28T22:51:13.722Z,101591.88
2023-01-28T22:53:41.223Z,101598.67
2023-01-28T22:56:08.591Z,101601.70
2023-01-28T22:58:36.093Z,101605.05
2023-01-28T23:01:03.704Z,101596.98
2023-01-28T23:03:30.877Z,101592.75
2023-01-28T23:05:59.106Z,101589.80
2023-01-28T23:08:27.237Z,101590.86
2023-01-28T23:10:56.971Z,101593.41
2023-01-28T23:13:25.704Z,101593.70
2023-01-28T23:16:11.979Z,101594.63
2023-01-28T23:18:57.854Z,101593.59
2023-01-28T23:21:46.887Z,101583.38
2023-01-28T23:24:20.558Z,101584.65
2023-01-28T23:26:58.993Z,101577.44
2023-01-28T23:29:28.040Z,101577.78
2023-01-28T23:32:00.711Z,101573.32
2023-01-28T23:34:31.323Z,101568.78
2023-01-28T23:36:58.402Z,101567.05
2023-01-28T23:39:25.669Z,101555.26
2023-01-28T23:41:52.785Z,101541.13
2023-01-28T23:44:24.658Z,101530.98
2023-01-28T23:46:51.917Z,101537.31
2023-01-28T23:49:19.423Z,101546.68
2023-01-28T23:51:46.706Z,101543.23
2023-01-28T23:54:13.768Z,101534.69
2023-01-28T23:56:41.483Z,101529.48
2023-01-28T23:59:08.575Z,101528.60
